Time;durP1;ratioP1;P1;durP2;ratioP2;P2;SDS_P1;SDS_P2;PMS_P1;PMS_P2;Temp;Humidity;BMP_temperature;BMP_pressure;BME280_temperature;BME280_humidity;BME280_pressure;Samples;Min_cycle;Max_cycle;Signal;HPM_P1;HPM_P2
2023/09/26 00:04:44;;;;;;;10.48;6.60;;;18.20;99.90;;;;;;10127538;29;20283;-93
2023/09/26 00:09:47;;;;;;;6.70;6.00;;;18.10;99.90;;;;;;10107947;29;20223;-93
2023/09/26 00:14:49;;;;;;;10.07;5.70;;;18.10;99.90;;;;;;10082842;29;20212;-92
2023/09/26 00:19:52;;;;;;;8.73;7.00;;;17.90;99.90;;;;;;10121515;29;20208;-93
2023/09/26 00:24:55;;;;;;;11.90;6.50;;;17.90;99.90;;;;;;10101162;29;20264;-93
2023/09/26 00:29:58;;;;;;;7.00;4.75;;;17.90;99.90;;;;;;10111475;29;20292;-93
2023/09/26 00:35:01;;;;;;;5.68;4.85;;;18.00;99.90;;;;;;10108860;29;20264;-93
2023/09/26 00:40:04;;;;;;;7.38;6.53;;;18.20;99.90;;;;;;10114014;29;20255;-93
2023/09/26 00:45:09;;;;;;;6.10;4.88;;;18.20;99.90;;;;;;10112728;29;20635;-93
2023/09/26 00:50:12;;;;;;;6.68;5.97;;;18.10;99.90;;;;;;10110083;29;20286;-93
2023/09/26 00:55:22;;;;;;;7.70;6.05;;;18.00;99.90;;;;;;10101184;29;20213;-93
2023/09/26 01:00:26;;;;;;;6.05;5.38;;;17.90;99.90;;;;;;10096219;29;20256;-92
2023/09/26 01:05:29;;;;;;;11.25;6.07;;;17.80;99.90;;;;;;10093419;29;20259;-93
2023/09/26 01:10:32;;;;;;;6.95;6.22;;;17.80;99.90;;;;;;10116804;29;20696;-91
2023/09/26 01:15:37;;;;;;;7.93;6.28;;;17.70;99.90;;;;;;10133742;29;20268;-92
2023/09/26 01:20:44;;;;;;;4.85;3.70;;;17.80;99.90;;;;;;10117691;29;20256;-91
2023/09/26 01:25:46;;;;;;;4.80;4.25;;;17.90;99.90;;;;;;10115998;29;20739;-92
2023/09/26 01:30:49;;;;;;;5.60;3.75;;;17.80;99.90;;;;;;10115542;29;20232;-91
2023/09/26 01:35:52;;;;;;;7.97;6.28;;;17.80;99.90;;;;;;10108326;29;20233;-93
2023/09/26 01:40:54;;;;;;;10.13;7.90;;;18.00;99.90;;;;;;10080824;29;20296;-92
2023/09/26 01:45:57;;;;;;;4.13;3.72;;;17.90;99.90;;;;;;10113926;29;20287;-93
2023/09/26 01:50:59;;;;;;;11.45;7.20;;;17.80;99.90;;;;;;10103371;29;20204;-93
2023/09/26 01:56:02;;;;;;;6.97;6.10;;;17.90;99.90;;;;;;10115119;29;20224;-93
2023/09/26 02:01:05;;;;;;;9.55;6.93;;;17.90;99.90;;;;;;10119299;29;20236;-92
2023/09/26 02:06:08;;;;;;;7.82;6.63;;;17.90;99.90;;;;;;10087133;29;20281;-91
2023/09/26 02:11:11;;;;;;;10.25;6.57;;;18.00;99.90;;;;;;10131982;29;20301;-92
2023/09/26 02:16:16;;;;;;;10.50;7.85;;;18.10;99.90;;;;;;10111187;29;20240;-91
2023/09/26 02:21:20;;;;;;;15.80;8.63;;;18.10;99.90;;;;;;10114166;29;20236;-92
2023/09/26 02:26:23;;;;;;;7.82;7.00;;;17.90;99.90;;;;;;10111146;29;20260;-91
2023/09/26 02:31:25;;;;;;;8.45;6.75;;;17.70;99.90;;;;;;10128716;29;20236;-92
2023/09/26 02:36:28;;;;;;;6.15;5.55;;;17.70;99.90;;;;;;10112628;29;20296;-91
2023/09/26 02:41:30;;;;;;;7.68;6.22;;;17.70;99.90;;;;;;10131008;29;20287;-91
2023/09/26 02:46:33;;;;;;;6.50;5.72;;;17.60;99.90;;;;;;10111087;29;20240;-92
2023/09/26 02:51:36;;;;;;;5.82;3.95;;;17.60;99.90;;;;;;10110390;29;20666;-92
2023/09/26 02:56:39;;;;;;;7.03;5.90;;;17.70;99.90;;;;;;10111083;29;20309;-91
2023/09/26 03:01:42;;;;;;;8.45;7.28;;;17.80;99.90;;;;;;10100965;29;20280;-91
2023/09/26 03:06:44;;;;;;;9.32;8.10;;;17.70;99.90;;;;;;10129286;29;20228;-93
2023/09/26 03:11:47;;;;;;;8.60;7.30;;;17.50;99.90;;;;;;10126661;29;20288;-92
2023/09/26 03:16:51;;;;;;;8.57;7.38;;;17.40;99.90;;;;;;10110453;29;20275;-93
2023/09/26 03:21:53;;;;;;;13.20;8.60;;;17.30;99.90;;;;;;10109146;29;20252;-92
2023/09/26 03:26:56;;;;;;;10.02;8.55;;;17.20;99.90;;;;;;10111533;29;20267;-92
2023/09/26 03:31:59;;;;;;;12.50;8.18;;;17.20;99.90;;;;;;10095263;29;20251;-92
2023/09/26 03:37:02;;;;;;;9.43;8.13;;;17.20;99.90;;;;;;10107915;29;20240;-92
2023/09/26 03:42:04;;;;;;;11.00;7.72;;;17.20;99.90;;;;;;10122580;29;20251;-91
2023/09/26 03:47:07;;;;;;;7.38;6.68;;;17.30;99.90;;;;;;10110386;29;20632;-92
2023/09/26 03:52:10;;;;;;;9.38;7.97;;;17.20;99.90;;;;;;10127367;29;20287;-92
2023/09/26 03:57:12;;;;;;;10.18;7.93;;;17.00;99.90;;;;;;10111648;29;20273;-92
2023/09/26 04:02:15;;;;;;;9.85;7.20;;;17.00;99.90;;;;;;10109930;29;20334;-90
2023/09/26 04:07:18;;;;;;;8.05;6.32;;;16.80;99.90;;;;;;10127562;29;20232;-90
2023/09/26 04:12:21;;;;;;;8.13;7.22;;;16.80;99.90;;;;;;10110932;29;20252;-90
2023/09/26 04:17:24;;;;;;;12.05;8.48;;;16.90;99.90;;;;;;10080245;29;20243;-91
2023/09/26 04:22:28;;;;;;;11.88;8.95;;;16.60;99.90;;;;;;10110150;29;20272;-92
2023/09/26 04:27:31;;;;;;;6.78;5.18;;;16.60;99.90;;;;;;10126826;29;20275;-92
2023/09/26 04:32:34;;;;;;;6.05;5.40;;;16.40;99.90;;;;;;10093507;29;20240;-92
2023/09/26 04:37:36;;;;;;;5.13;4.68;;;16.40;99.90;;;;;;10094984;29;20252;-92
2023/09/26 04:42:41;;;;;;;7.32;4.10;;;16.50;99.90;;;;;;10127796;29;20660;-92
2023/09/26 04:47:44;;;;;;;7.75;6.95;;;16.50;99.90;;;;;;10134118;29;20240;-92
2023/09/26 04:52:47;;;;;;;15.05;10.00;;;16.40;99.90;;;;;;10128042;29;20244;-92
2023/09/26 04:57:50;;;;;;;10.15;6.75;;;15.90;99.90;;;;;;10125980;29;20358;-92
2023/09/26 05:02:52;;;;;;;12.77;8.80;;;15.80;99.90;;;;;;10102512;29;20292;-92
2023/09/26 05:07:55;;;;;;;41.88;20.90;;;15.80;99.90;;;;;;10102621;29;20296;-92
2023/09/26 05:12:58;;;;;;;48.67;25.80;;;15.80;99.90;;;;;;10134233;29;20268;-93
2023/09/26 05:18:03;;;;;;;14.35;10.07;;;15.90;99.90;;;;;;10111456;29;20212;-92
2023/09/26 05:23:06;;;;;;;11.73;9.90;;;16.00;99.90;;;;;;10134383;29;20260;-93
2023/09/26 05:28:10;;;;;;;7.35;5.35;;;16.10;99.90;;;;;;10114589;29;20240;-92
2023/09/26 05:33:13;;;;;;;8.52;6.47;;;16.20;99.90;;;;;;10102259;29;20620;-92
2023/09/26 05:38:16;;;;;;;13.07;8.90;;;16.20;99.90;;;;;;10116615;29;20236;-91
2023/09/26 05:43:18;;;;;;;12.82;9.18;;;16.20;99.90;;;;;;10115403;29;20248;-91
2023/09/26 05:48:21;;;;;;;7.28;6.20;;;16.20;99.90;;;;;;10128228;29;20232;-94
2023/09/26 05:53:24;;;;;;;5.43;4.80;;;16.40;99.90;;;;;;10101591;29;20623;-94
2023/09/26 05:58:27;;;;;;;15.00;10.80;;;16.50;99.90;;;;;;10134566;29;20275;-96
2023/09/26 06:03:29;;;;;;;3.85;3.55;;;16.20;99.90;;;;;;10128738;29;20316;-95
2023/09/26 06:08:34;;;;;;;13.80;11.75;;;16.00;99.90;;;;;;10116466;29;20658;-92
2023/09/26 06:13:38;;;;;;;12.63;10.52;;;16.20;99.90;;;;;;10116347;29;20243;-93
2023/09/26 06:18:40;;;;;;;16.63;12.52;;;16.30;99.90;;;;;;10129855;29;20682;-92
2023/09/26 06:23:43;;;;;;;20.30;13.65;;;16.30;99.90;;;;;;10132549;29;20271;-92
2023/09/26 06:28:46;;;;;;;19.83;14.23;;;16.30;99.90;;;;;;10116881;29;20967;-93
2023/09/26 06:33:49;;;;;;;16.33;12.50;;;16.40;99.90;;;;;;10130911;29;20677;-92
2023/09/26 06:38:52;;;;;;;15.50;13.15;;;16.30;99.90;;;;;;10129759;29;20236;-92
2023/09/26 06:43:55;;;;;;;12.45;10.20;;;16.40;99.90;;;;;;10122442;29;20275;-85
2023/09/26 06:48:57;;;;;;;14.23;12.20;;;16.60;99.90;;;;;;10169340;29;20243;-85
2023/09/26 06:54:00;;;;;;;11.68;10.30;;;16.80;99.90;;;;;;10170337;29;20263;-85
2023/09/26 06:59:04;;;;;;;13.27;8.52;;;16.80;99.90;;;;;;10169067;29;20879;-84
2023/09/26 07:04:13;;;;;;;12.07;9.05;;;17.10;99.90;;;;;;10169644;29;20719;-85
2023/09/26 07:09:17;;;;;;;8.98;7.50;;;17.50;99.90;;;;;;10152594;29;20290;-85
2023/09/26 07:14:20;;;;;;;12.93;9.90;;;17.90;99.90;;;;;;10151573;29;20256;-85
2023/09/26 07:19:22;;;;;;;8.13;6.30;;;18.30;99.90;;;;;;10151649;29;20682;-85
2023/09/26 07:24:26;;;;;;;12.43;8.80;;;18.60;99.90;;;;;;10156944;29;20272;-85
2023/09/26 07:29:46;;;;;;;13.70;10.20;;;18.90;99.90;;;;;;10114931;29;20243;-86
2023/09/26 07:34:48;;;;;;;10.60;9.32;;;19.30;99.90;;;;;;10129639;29;20252;-85
2023/09/26 07:39:52;;;;;;;11.85;9.23;;;19.50;99.90;;;;;;10112620;29;20248;-85
2023/09/26 07:44:58;;;;;;;8.88;7.05;;;19.70;99.90;;;;;;10129407;29;20263;-86
2023/09/26 07:50:01;;;;;;;14.60;10.30;;;20.00;99.90;;;;;;10112989;29;20664;-85
2023/09/26 07:55:05;;;;;;;15.88;9.55;;;20.20;99.90;;;;;;10128891;29;20256;-86
2023/09/26 08:00:12;;;;;;;13.73;10.90;;;20.40;99.90;;;;;;10111626;29;20298;-84
2023/09/26 08:05:15;;;;;;;11.65;7.82;;;20.60;99.90;;;;;;10128669;29;20259;-85
2023/09/26 08:10:18;;;;;;;15.05;11.65;;;20.80;99.90;;;;;;10128643;29;20255;-84
2023/09/26 08:15:21;;;;;;;10.77;8.38;;;21.00;99.20;;;;;;10112078;29;20699;-85
2023/09/26 08:20:26;;;;;;;6.72;6.10;;;21.20;97.30;;;;;;10111023;29;20244;-85
2023/09/26 08:25:29;;;;;;;12.20;9.73;;;21.40;97.40;;;;;;10128122;29;20267;-85
2023/09/26 08:30:33;;;;;;;9.10;6.32;;;21.50;98.50;;;;;;10111865;29;20714;-84
2023/09/26 08:35:36;;;;;;;8.32;5.50;;;21.70;96.40;;;;;;10128818;29;20269;-84
2023/09/26 08:40:39;;;;;;;12.10;8.90;;;21.80;94.90;;;;;;10128384;29;20240;-84
2023/09/26 08:45:42;;;;;;;10.32;7.43;;;21.80;95.50;;;;;;10127802;29;20264;-84
2023/09/26 08:50:44;;;;;;;10.95;6.90;;;22.10;95.30;;;;;;10111147;29;20296;-84
2023/09/26 08:55:49;;;;;;;9.38;6.60;;;22.20;94.20;;;;;;10111235;29;20812;-84
2023/09/26 09:00:52;;;;;;;13.30;7.63;;;22.30;93.40;;;;;;10128025;29;20240;-84
2023/09/26 09:05:55;;;;;;;6.75;5.85;;;22.40;93.20;;;;;;10127880;29;20260;-84
2023/09/26 09:10:57;;;;;;;5.65;5.10;;;22.60;91.70;;;;;;10111155;29;20251;-84
2023/09/26 09:16:10;;;;;;;7.38;5.28;;;22.80;90.50;;;;;;10111196;29;20236;-84
2023/09/26 09:21:20;;;;;;;5.38;4.88;;;22.80;90.70;;;;;;10127486;29;20247;-84
2023/09/26 09:26:24;;;;;;;6.18;5.57;;;22.80;89.90;;;;;;10127210;29;20276;-85
2023/09/26 09:31:28;;;;;;;6.70;4.88;;;22.80;90.30;;;;;;10133303;29;20235;-85
2023/09/26 09:36:30;;;;;;;7.05;6.22;;;22.80;89.80;;;;;;10117291;29;20311;-85
2023/09/26 09:41:39;;;;;;;5.75;5.18;;;23.00;90.50;;;;;;10117275;29;20327;-84
2023/09/26 09:46:43;;;;;;;7.55;6.35;;;23.10;87.40;;;;;;10117942;29;20260;-85
2023/09/26 09:51:47;;;;;;;12.30;7.05;;;23.10;86.80;;;;;;10144999;29;20227;-85
2023/09/26 09:56:54;;;;;;;5.65;5.00;;;23.00;89.00;;;;;;10172800;29;20279;-85
2023/09/26 10:01:57;;;;;;;6.85;6.07;;;23.00;88.40;;;;;;10155939;29;20643;-85
2023/09/26 10:07:00;;;;;;;9.30;6.20;;;23.10;87.90;;;;;;10171914;29;20271;-85
2023/09/26 10:12:05;;;;;;;7.25;6.53;;;23.10;86.90;;;;;;10155237;29;20298;-85
2023/09/26 10:17:08;;;;;;;6.57;5.50;;;23.00;89.80;;;;;;10172258;29;20663;-85
2023/09/26 10:22:16;;;;;;;6.70;6.00;;;23.00;89.30;;;;;;10155131;29;20258;-85
2023/09/26 10:27:42;;;;;;;16.00;8.52;;;23.10;90.30;;;;;;10171469;29;20343;-85
2023/09/26 10:33:00;;;;;;;7.63;5.95;;;23.10;87.20;;;;;;10171525;29;20235;-85
2023/09/26 10:38:12;;;;;;;13.13;8.00;;;23.20;88.10;;;;;;10154744;29;20294;-85
2023/09/26 10:43:17;;;;;;;10.85;7.95;;;23.20;87.10;;;;;;10170687;29;20243;-85
2023/09/26 10:48:40;;;;;;;10.35;5.78;;;23.30;88.90;;;;;;10171095;29;20239;-85
2023/09/26 10:53:44;;;;;;;6.25;5.65;;;23.20;87.50;;;;;;10170439;29;20242;-85
2023/09/26 10:58:47;;;;;;;7.82;4.85;;;23.10;85.20;;;;;;10169997;29;20255;-85
2023/09/26 11:03:49;;;;;;;10.30;6.60;;;23.20;86.20;;;;;;10170474;29;20252;-85
2023/09/26 11:08:52;;;;;;;6.63;5.97;;;23.20;88.50;;;;;;10153648;29;20700;-85
2023/09/26 11:13:55;;;;;;;12.68;7.80;;;23.20;84.80;;;;;;10169970;29;20235;-85
2023/09/26 11:18:58;;;;;;;8.75;5.93;;;23.20;89.30;;;;;;10139026;29;20292;-86
2023/09/26 11:24:17;;;;;;;5.82;5.25;;;23.30;87.60;;;;;;10130848;29;20670;-85
2023/09/26 11:29:21;;;;;;;7.68;5.32;;;23.30;84.20;;;;;;10131976;29;20243;-85
2023/09/26 11:34:26;;;;;;;9.35;5.78;;;23.30;85.10;;;;;;10168501;29;20753;-85
2023/09/26 11:39:28;;;;;;;15.85;8.18;;;23.30;88.40;;;;;;10168993;29;20243;-85
2023/09/26 11:44:31;;;;;;;12.25;6.40;;;23.30;90.00;;;;;;10151409;29;20318;-85
2023/09/26 11:56:30;;;;;;;9.35;6.50;;;23.30;87.90;;;;;;10169597;29;20239;-85
2023/09/26 12:01:33;;;;;;;6.35;5.53;;;23.30;87.80;;;;;;10168825;29;20231;-85
2023/09/26 12:06:35;;;;;;;12.07;9.00;;;23.30;86.00;;;;;;10168428;29;20291;-85
2023/09/26 12:11:38;;;;;;;6.05;5.55;;;23.30;88.40;;;;;;10168566;29;20682;-85
2023/09/26 12:16:42;;;;;;;8.93;6.55;;;23.30;84.80;;;;;;10150722;29;20305;-85
2023/09/26 12:21:48;;;;;;;6.43;5.75;;;23.30;86.00;;;;;;10166938;29;20321;-85
2023/09/26 12:32:59;;;;;;;9.65;7.47;;;23.40;85.20;;;;;;10167454;29;20655;-85
2023/09/26 12:38:02;;;;;;;10.55;8.35;;;23.40;86.70;;;;;;10166992;29;20819;-85
2023/09/26 12:43:05;;;;;;;6.00;5.40;;;23.40;87.80;;;;;;10166868;29;20307;-85
2023/09/26 12:48:07;;;;;;;7.05;6.25;;;23.40;83.80;;;;;;10166775;29;20262;-85
2023/09/26 12:53:10;;;;;;;5.15;4.65;;;23.50;84.20;;;;;;10149753;29;20239;-85
2023/09/26 12:58:13;;;;;;;5.28;4.78;;;23.50;81.70;;;;;;10166880;29;20299;-85
2023/09/26 13:03:15;;;;;;;9.82;6.47;;;23.50;83.50;;;;;;10150521;29;20239;-85
2023/09/26 13:08:18;;;;;;;6.85;5.32;;;23.50;85.20;;;;;;10174575;29;20255;-85
2023/09/26 13:13:21;;;;;;;10.82;7.97;;;23.50;83.20;;;;;;10174383;29;20231;-85
2023/09/26 13:18:23;;;;;;;9.93;6.53;;;23.60;86.70;;;;;;10173945;29;20243;-85
2023/09/26 13:23:26;;;;;;;5.95;5.22;;;23.60;82.50;;;;;;10172805;29;20239;-85
2023/09/26 13:28:28;;;;;;;4.72;4.32;;;23.70;80.70;;;;;;10173588;29;20259;-85
2023/09/26 13:33:31;;;;;;;6.03;5.10;;;23.70;80.60;;;;;;10172656;29;20263;-85
2023/09/26 13:38:34;;;;;;;5.35;4.82;;;23.70;82.70;;;;;;10172877;29;20243;-85
2023/09/26 13:43:36;;;;;;;7.43;5.80;;;23.70;80.60;;;;;;10155572;29;20279;-85
2023/09/26 13:48:39;;;;;;;8.30;6.80;;;23.60;81.80;;;;;;10173298;29;20305;-85
2023/09/26 13:53:41;;;;;;;16.35;9.07;;;23.50;83.60;;;;;;10172212;29;20693;-85
2023/09/26 13:58:44;;;;;;;7.70;4.95;;;23.50;86.00;;;;;;10149618;29;20711;-83
2023/09/26 14:03:47;;;;;;;14.50;7.28;;;23.40;82.20;;;;;;10130514;29;20236;-83
2023/09/26 14:08:52;;;;;;;15.88;6.65;;;23.40;83.70;;;;;;10127701;29;20284;-84
2023/09/26 14:13:55;;;;;;;9.00;6.93;;;23.40;85.90;;;;;;10130500;29;20307;-84
2023/09/26 14:18:57;;;;;;;10.50;6.13;;;23.40;86.30;;;;;;10111566;29;20299;-84
2023/09/26 14:24:00;;;;;;;10.48;5.88;;;23.40;86.40;;;;;;10132262;29;20272;-84
2023/09/26 14:29:04;;;;;;;7.32;5.15;;;23.50;85.80;;;;;;10132169;29;20267;-84
2023/09/26 14:34:07;;;;;;;10.88;7.05;;;23.50;85.60;;;;;;10138081;29;20268;-84
2023/09/26 14:39:10;;;;;;;7.53;6.00;;;23.50;86.90;;;;;;10130443;29;20669;-84
2023/09/26 14:44:13;;;;;;;11.90;7.22;;;23.60;86.10;;;;;;10129339;29;20248;-84
2023/09/26 14:49:20;;;;;;;8.35;6.90;;;23.60;86.10;;;;;;10115276;29;20245;-83
2023/09/26 14:54:22;;;;;;;7.65;5.55;;;23.70;88.70;;;;;;10127816;29;20240;-83
2023/09/26 14:59:25;;;;;;;12.50;6.95;;;23.70;85.30;;;;;;10130787;29;20272;-83
2023/09/26 15:04:27;;;;;;;6.85;5.68;;;23.80;85.20;;;;;;10131517;29;20240;-83
2023/09/26 15:09:30;;;;;;;16.98;10.95;;;23.80;85.30;;;;;;10114763;29;20307;-84
2023/09/26 15:14:33;;;;;;;8.05;6.05;;;23.80;86.60;;;;;;10142475;29;20248;-83
2023/09/26 15:19:35;;;;;;;7.35;6.15;;;23.70;85.90;;;;;;10168838;29;20602;-83
2023/09/26 15:24:38;;;;;;;7.45;5.93;;;23.70;86.20;;;;;;10138837;29;20260;-83
2023/09/26 15:29:40;;;;;;;10.52;7.10;;;23.70;86.50;;;;;;10127961;29;20768;-83
2023/09/26 15:34:44;;;;;;;7.10;5.18;;;23.70;86.70;;;;;;10128756;29;20244;-83
2023/09/26 15:39:47;;;;;;;14.50;7.88;;;23.60;87.70;;;;;;10090742;29;20244;-83
2023/09/26 15:44:50;;;;;;;6.55;4.82;;;23.50;87.70;;;;;;10093123;29;20260;-84
2023/09/26 15:49:52;;;;;;;10.45;8.02;;;23.40;88.60;;;;;;10090013;29;20232;-83
2023/09/26 15:54:55;;;;;;;11.40;8.60;;;23.20;89.50;;;;;;10090052;29;20327;-84
2023/09/26 15:59:58;;;;;;;16.52;10.07;;;23.10;90.20;;;;;;10103856;29;20311;-84
2023/09/26 16:05:00;;;;;;;9.95;8.30;;;23.00;90.40;;;;;;10127434;29;20263;-83
2023/09/26 16:10:03;;;;;;;23.10;11.43;;;22.90;91.10;;;;;;10129174;29;20224;-83
2023/09/26 16:15:06;;;;;;;16.17;10.40;;;22.50;92.60;;;;;;10095405;29;20243;-83
2023/09/26 16:20:09;;;;;;;14.15;7.47;;;22.30;93.40;;;;;;10129291;29;20255;-83
2023/09/26 16:25:12;;;;;;;7.97;6.03;;;22.20;93.80;;;;;;10128496;29;20276;-83
2023/09/26 16:30:15;;;;;;;11.63;6.68;;;22.00;94.20;;;;;;10127811;29;20762;-83
2023/09/26 16:35:18;;;;;;;12.40;8.75;;;21.80;94.80;;;;;;10111044;29;20236;-84
2023/09/26 16:40:21;;;;;;;16.25;9.02;;;21.50;96.50;;;;;;10134322;29;20256;-84
2023/09/26 16:45:23;;;;;;;24.65;11.10;;;21.10;98.00;;;;;;10096098;29;20699;-84
2023/09/26 16:50:26;;;;;;;18.15;11.23;;;20.90;99.60;;;;;;10101475;29;20240;-83
2023/09/26 16:55:29;;;;;;;24.58;11.27;;;20.60;99.90;;;;;;10115696;29;20233;-84
2023/09/26 17:00:31;;;;;;;21.40;11.20;;;20.40;99.90;;;;;;10131354;29;20240;-84
2023/09/26 17:05:38;;;;;;;15.93;10.48;;;20.20;99.90;;;;;;10117988;29;20259;-84
2023/09/26 17:10:41;;;;;;;20.17;10.77;;;20.00;99.90;;;;;;10134965;29;20232;-84
2023/09/26 17:15:44;;;;;;;18.00;11.50;;;19.80;99.90;;;;;;10136257;29;20241;-84
2023/09/26 17:20:47;;;;;;;17.90;7.43;;;19.70;99.90;;;;;;10133394;29;20639;-84
2023/09/26 17:25:52;;;;;;;13.10;8.57;;;19.70;99.90;;;;;;10134960;29;20669;-84
2023/09/26 17:30:56;;;;;;;14.32;7.50;;;19.70;99.90;;;;;;10131785;29;20669;-84
2023/09/26 17:36:03;;;;;;;9.90;7.50;;;19.70;99.90;;;;;;10107969;29;20291;-84
2023/09/26 17:41:07;;;;;;;12.73;7.50;;;19.80;99.90;;;;;;10094892;29;20856;-84
2023/09/26 17:46:11;;;;;;;8.32;6.53;;;19.80;99.90;;;;;;10132274;29;20322;-84
2023/09/26 17:51:18;;;;;;;14.55;11.10;;;19.90;99.90;;;;;;10125339;29;20263;-85
2023/09/26 17:56:21;;;;;;;15.15;11.27;;;19.90;99.90;;;;;;10135238;29;20248;-84
2023/09/26 18:01:24;;;;;;;6.32;5.70;;;20.00;99.90;;;;;;10113148;29;20240;-84
2023/09/26 18:06:27;;;;;;;10.75;9.00;;;20.00;99.90;;;;;;10130097;29;20861;-85
2023/09/26 18:11:30;;;;;;;20.02;11.88;;;20.10;99.90;;;;;;10130491;29;20248;-84
2023/09/26 18:16:33;;;;;;;17.30;12.02;;;20.00;99.90;;;;;;10131366;29;20248;-84
2023/09/26 18:21:36;;;;;;;26.38;16.27;;;19.90;99.90;;;;;;10134901;29;20263;-85
2023/09/26 18:26:38;;;;;;;20.45;13.70;;;19.90;99.90;;;;;;10109500;29;20333;-85
2023/09/26 18:31:41;;;;;;;24.40;15.00;;;19.90;99.90;;;;;;10120430;29;20260;-85
2023/09/26 18:36:44;;;;;;;10.68;8.73;;;19.90;99.90;;;;;;10114801;29;20248;-85
2023/09/26 18:41:47;;;;;;;20.33;14.52;;;19.90;99.90;;;;;;10124184;29;20288;-85
2023/09/26 18:46:49;;;;;;;8.10;6.95;;;19.90;99.90;;;;;;10112076;29;20292;-85
2023/09/26 18:51:53;;;;;;;10.20;6.68;;;19.90;99.90;;;;;;10140778;29;20299;-84
2023/09/26 18:56:56;;;;;;;16.88;13.43;;;19.80;99.90;;;;;;10141770;29;20295;-84
2023/09/26 19:01:59;;;;;;;8.80;7.05;;;19.80;99.90;;;;;;10125187;29;20236;-84
2023/09/26 19:07:03;;;;;;;22.35;17.02;;;19.70;99.90;;;;;;10122592;29;20724;-85
2023/09/26 19:12:07;;;;;;;22.30;15.70;;;19.50;99.90;;;;;;10113938;29;20284;-85
2023/09/26 19:17:09;;;;;;;27.17;18.23;;;19.50;99.90;;;;;;10138871;29;20287;-85
2023/09/26 19:22:14;;;;;;;32.97;21.17;;;19.40;99.90;;;;;;10113510;29;20248;-84
2023/09/26 19:27:18;;;;;;;35.35;21.90;;;19.20;99.90;;;;;;10137080;29;20282;-84
2023/09/26 19:32:21;;;;;;;27.20;15.82;;;19.00;99.90;;;;;;10129398;29;20232;-85
2023/09/26 19:37:23;;;;;;;23.23;17.38;;;18.90;99.90;;;;;;10129435;29;20299;-84
2023/09/26 19:42:26;;;;;;;30.23;20.13;;;18.80;99.90;;;;;;10129142;29;20304;-84
2023/09/26 19:47:29;;;;;;;26.88;19.20;;;18.70;99.90;;;;;;10120157;29;20291;-86
2023/09/26 19:52:32;;;;;;;32.20;24.17;;;18.60;99.90;;;;;;10117961;29;20615;-86
2023/09/26 19:57:34;;;;;;;21.80;14.68;;;18.40;99.90;;;;;;10126921;29;20321;-87
2023/09/26 20:02:40;;;;;;;31.25;23.40;;;18.20;99.90;;;;;;10090518;29;20248;-86
2023/09/26 20:07:43;;;;;;;29.38;22.30;;;18.00;99.90;;;;;;10128274;29;20735;-86
2023/09/26 20:12:46;;;;;;;25.80;18.08;;;17.70;99.90;;;;;;9787622;29;10000053;-86
2023/09/26 20:17:48;;;;;;;18.33;14.20;;;17.70;99.90;;;;;;10123238;29;20240;-87
2023/09/26 20:22:51;;;;;;;18.50;13.13;;;17.80;99.90;;;;;;10124302;29;20275;-86
2023/09/26 20:27:54;;;;;;;36.38;24.90;;;17.80;99.90;;;;;;10121538;29;20316;-86
2023/09/26 20:32:57;;;;;;;35.60;20.08;;;17.50;99.90;;;;;;10086478;29;20674;-86
2023/09/26 20:37:59;;;;;;;34.65;25.00;;;17.20;99.90;;;;;;10128616;29;20627;-87
2023/09/26 20:43:02;;;;;;;28.65;18.42;;;17.00;99.90;;;;;;10125537;29;20252;-86
2023/09/26 20:48:05;;;;;;;30.48;20.75;;;17.20;99.90;;;;;;10125520;29;20845;-87
2023/09/26 20:53:10;;;;;;;33.95;21.38;;;17.00;99.90;;;;;;10071913;29;20250;-87
2023/09/26 20:58:13;;;;;;;34.17;22.48;;;17.00;99.90;;;;;;10086331;29;20236;-86
2023/09/26 21:03:17;;;;;;;27.05;16.70;;;16.70;99.90;;;;;;10121515;29;20235;-86
2023/09/26 21:08:21;;;;;;;29.35;20.08;;;16.70;99.90;;;;;;10106161;29;20264;-85
2023/09/26 21:13:23;;;;;;;26.60;14.88;;;16.80;99.90;;;;;;10124775;29;20336;-84
2023/09/26 21:18:26;;;;;;;32.40;22.27;;;16.70;99.90;;;;;;10122679;29;20331;-86
2023/09/26 21:23:28;;;;;;;23.38;16.50;;;16.60;99.90;;;;;;10159604;29;20298;-84
2023/09/26 21:28:33;;;;;;;34.25;21.52;;;16.50;99.90;;;;;;10128983;29;20279;-84
2023/09/26 21:33:36;;;;;;;13.07;10.07;;;16.50;99.90;;;;;;10128510;29;20231;-85
2023/09/26 21:38:38;;;;;;;37.22;23.48;;;16.40;99.90;;;;;;10122327;29;20235;-84
2023/09/26 21:43:41;;;;;;;27.70;20.48;;;16.30;99.90;;;;;;10131484;29;20236;-84
2023/09/26 21:48:44;;;;;;;29.20;20.42;;;16.30;99.90;;;;;;10099534;29;20731;-85
2023/09/26 21:53:46;;;;;;;28.70;20.58;;;16.20;99.90;;;;;;10132108;29;20236;-85
2023/09/26 21:58:49;;;;;;;26.42;18.15;;;16.20;99.90;;;;;;10115049;29;20239;-85
2023/09/26 22:03:52;;;;;;;26.10;18.52;;;16.10;99.90;;;;;;10138354;29;20244;-85
2023/09/26 22:08:55;;;;;;;22.02;14.82;;;16.10;99.90;;;;;;10133637;29;20264;-85
2023/09/26 22:13:57;;;;;;;29.42;20.10;;;16.00;99.90;;;;;;10127748;29;20292;-85
2023/09/26 22:19:00;;;;;;;33.72;21.48;;;16.00;99.90;;;;;;10135089;29;20236;-84
2023/09/26 22:24:03;;;;;;;30.52;20.80;;;15.90;99.90;;;;;;10128469;29;20275;-84
2023/09/26 22:29:05;;;;;;;23.27;16.60;;;15.80;99.90;;;;;;10129005;29;20260;-84
2023/09/26 22:34:08;;;;;;;23.27;15.90;;;15.80;99.90;;;;;;10112587;29;20232;-85
2023/09/26 22:39:11;;;;;;;28.25;21.30;;;15.80;99.90;;;;;;10125837;29;20272;-86
2023/09/26 22:44:13;;;;;;;27.45;18.42;;;15.80;99.90;;;;;;10133013;29;20244;-85
2023/09/26 22:49:17;;;;;;;26.33;17.08;;;15.70;99.90;;;;;;10130658;29;20256;-86
2023/09/26 22:54:20;;;;;;;23.20;17.27;;;15.70;99.90;;;;;;10113912;29;20299;-85
2023/09/26 22:59:24;;;;;;;24.42;17.15;;;15.70;99.90;;;;;;10127412;29;20236;-85
2023/09/26 23:04:27;;;;;;;27.98;19.90;;;15.70;99.90;;;;;;10113542;29;20288;-85
2023/09/26 23:09:29;;;;;;;32.63;18.20;;;15.70;99.90;;;;;;10129934;29;20251;-86
2023/09/26 23:14:32;;;;;;;29.75;19.60;;;15.70;99.90;;;;;;10113161;29;20224;-85
2023/09/26 23:19:34;;;;;;;32.83;19.48;;;15.60;99.90;;;;;;10111163;29;20648;-85
2023/09/26 23:24:37;;;;;;;22.58;14.65;;;15.50;99.90;;;;;;10128965;29;20263;-85
2023/09/26 23:29:40;;;;;;;21.52;15.77;;;15.50;99.90;;;;;;10111585;29;20284;-85
2023/09/26 23:34:44;;;;;;;24.88;18.05;;;15.40;99.90;;;;;;10128169;29;20659;-85
2023/09/26 23:39:47;;;;;;;28.02;18.67;;;15.40;99.90;;;;;;10127260;29;20672;-85
2023/09/26 23:44:49;;;;;;;14.27;11.20;;;15.30;99.90;;;;;;10126477;29;20244;-86
2023/09/26 23:49:52;;;;;;;28.67;16.90;;;15.30;99.90;;;;;;10120685;29;20318;-85
2023/09/26 23:54:56;;;;;;;26.02;17.48;;;15.40;99.90;;;;;;10126224;29;20269;-85
2023/09/26 23:59:58;;;;;;;20.60;13.77;;;15.40;99.90;;;;;;10130481;29;20701;-85
